createdAt,value
2022-11-04T00:01:42.507Z,11.90
2022-11-04T00:04:11.559Z,11.90
2022-11-04T00:06:41.144Z,11.90
2022-11-04T00:09:10.090Z,12.10
2022-11-04T00:11:55.725Z,11.80
2022-11-04T00:14:23.945Z,11.80
2022-11-04T00:17:09.462Z,11.80
2022-11-04T00:19:51.319Z,11.80
2022-11-04T00:22:38.551Z,11.80
2022-11-04T00:25:24.133Z,11.80
2022-11-04T00:28:09.808Z,11.80
2022-11-04T00:30:38.041Z,11.70
2022-11-04T00:33:23.525Z,11.70
2022-11-04T00:35:51.827Z,11.70
2022-11-04T00:38:21.144Z,11.70
2022-11-04T00:40:49.124Z,11.70
2022-11-04T00:43:17.114Z,11.70
2022-11-04T00:45:45.347Z,11.70
2022-11-04T00:48:13.398Z,11.70
2022-11-04T00:50:41.670Z,11.70
2022-11-04T00:53:09.910Z,11.70
2022-11-04T00:55:39.431Z,11.70
2022-11-04T00:58:07.466Z,11.70
2022-11-04T01:00:35.423Z,11.70
2022-11-04T01:03:03.389Z,11.70
2022-11-04T01:05:31.362Z,11.70
2022-11-04T01:07:59.352Z,11.60
2022-11-04T01:10:27.327Z,11.70
2022-11-04T01:12:56.782Z,11.70
2022-11-04T01:15:25.001Z,11.70
2022-11-04T01:17:52.976Z,11.70
2022-11-04T01:20:20.934Z,11.70
2022-11-04T01:22:48.936Z,11.70
2022-11-04T01:25:17.086Z,11.70
2022-11-04T01:27:45.002Z,11.70
2022-11-04T01:30:15.282Z,11.70
2022-11-04T01:32:43.265Z,11.70
2022-11-04T01:35:11.450Z,11.70
2022-11-04T01:37:39.478Z,11.80
2022-11-04T01:40:08.092Z,11.70
2022-11-04T01:42:36.015Z,11.70
2022-11-04T01:45:03.911Z,11.70
2022-11-04T01:47:36.072Z,11.70
2022-11-04T01:50:05.889Z,11.70
2022-11-04T01:52:35.324Z,11.70
2022-11-04T01:55:04.582Z,11.60
2022-11-04T01:57:35.579Z,11.60
2022-11-04T02:00:06.216Z,11.60
2022-11-04T02:02:36.955Z,11.60
2022-11-04T02:05:05.172Z,11.60
2022-11-04T02:07:33.493Z,11.50
2022-11-04T02:10:01.570Z,11.50
2022-11-04T02:12:47.114Z,11.50
2022-11-04T02:15:15.223Z,11.40
2022-11-04T02:17:54.233Z,11.40
2022-11-04T02:20:38.406Z,11.30
2022-11-04T02:23:23.999Z,11.30
2022-11-04T02:26:09.850Z,11.20
2022-11-04T02:29:08.052Z,11.20
2022-11-04T02:31:37.920Z,11.10
2022-11-04T02:34:11.437Z,11.10
2022-11-04T02:36:43.155Z,11.10
2022-11-04T02:39:15.569Z,11.10
2022-11-04T02:41:48.940Z,11.00
2022-11-04T02:44:20.791Z,11.00
2022-11-04T02:46:51.088Z,11.00
2022-11-04T02:49:22.087Z,10.90
2022-11-04T02:51:51.864Z,10.90
2022-11-04T02:54:42.274Z,10.90
2022-11-04T02:57:14.534Z,10.90
2022-11-04T02:59:47.190Z,10.90
2022-11-04T03:02:17.048Z,10.80
2022-11-04T03:04:48.092Z,10.80
2022-11-04T03:07:19.698Z,10.80
2022-11-04T03:09:50.621Z,11.30
2022-11-04T03:12:21.240Z,10.80
2022-11-04T03:14:53.412Z,10.80
2022-11-04T03:17:23.524Z,10.80
2022-11-04T03:19:54.611Z,10.80
2022-11-04T03:22:24.042Z,10.70
2022-11-04T03:24:52.467Z,10.80
2022-11-04T03:27:23.588Z,10.70
2022-11-04T03:29:56.438Z,10.70
2022-11-04T03:32:29.428Z,10.70
2022-11-04T03:34:57.338Z,10.70
2022-11-04T03:37:25.380Z,10.70
2022-11-04T03:39:53.334Z,10.70
2022-11-04T03:42:22.254Z,10.70
2022-11-04T03:44:50.949Z,10.70
2022-11-04T03:47:21.672Z,10.60
2022-11-04T03:49:49.996Z,10.70
2022-11-04T03:52:18.754Z,10.70
2022-11-04T03:54:47.243Z,10.70
2022-11-04T03:57:21.662Z,10.70
2022-11-04T04:00:04.763Z,10.70
2022-11-04T04:02:37.923Z,11.40
2022-11-04T04:05:12.079Z,10.70
2022-11-04T04:07:45.374Z,10.70
2022-11-04T04:10:28.966Z,10.70
2022-11-04T04:12:58.631Z,10.70
2022-11-04T04:15:30.051Z,10.70
2022-11-04T04:18:01.894Z,10.70
2022-11-04T04:20:30.690Z,10.70
2022-11-04T04:23:02.025Z,10.70
2022-11-04T04:25:48.548Z,10.70
2022-11-04T04:28:18.260Z,10.70
2022-11-04T04:30:47.338Z,10.70
2022-11-04T04:33:17.458Z,10.70
2022-11-04T04:35:47.833Z,10.70
2022-11-04T04:38:35.892Z,10.70
2022-11-04T04:41:24.147Z,10.70
2022-11-04T04:44:09.561Z,10.70
2022-11-04T04:46:38.516Z,10.70
2022-11-04T04:49:08.057Z,10.60
2022-11-04T04:51:37.392Z,10.60
2022-11-04T04:54:10.990Z,10.60
2022-11-04T04:56:38.924Z,10.60
2022-11-04T04:59:07.030Z,10.60
2022-11-04T05:01:35.035Z,10.60
2022-11-04T05:04:02.925Z,10.60
2022-11-04T05:06:32.191Z,10.50
2022-11-04T05:09:00.138Z,10.50
2022-11-04T05:11:28.089Z,10.60
2022-11-04T05:13:56.126Z,10.50
2022-11-04T05:16:24.290Z,10.50
2022-11-04T05:18:52.611Z,10.40
2022-11-04T05:21:20.477Z,10.40
2022-11-04T05:23:49.784Z,10.40
2022-11-04T05:26:17.713Z,10.40
2022-11-04T05:28:45.658Z,10.40
2022-11-04T05:31:13.640Z,10.40
2022-11-04T05:33:41.726Z,10.40
2022-11-04T05:36:10.492Z,10.40
2022-11-04T05:38:39.141Z,10.40
2022-11-04T05:41:09.283Z,10.40
2022-11-04T05:43:37.524Z,10.40
2022-11-04T05:46:05.536Z,10.40
2022-11-04T05:48:40.057Z,10.40
2022-11-04T05:51:08.394Z,10.40
2022-11-04T05:53:36.322Z,10.40
2022-11-04T05:56:04.373Z,10.40
2022-11-04T05:58:33.757Z,10.40
2022-11-04T06:01:15.589Z,10.40
2022-11-04T06:03:43.758Z,10.40
2022-11-04T06:06:11.754Z,10.30
2022-11-04T06:08:44.917Z,10.30
2022-11-04T06:11:13.473Z,10.30
2022-11-04T06:13:42.726Z,10.30
2022-11-04T06:16:10.637Z,10.20
2022-11-04T06:18:38.576Z,10.20
2022-11-04T06:21:10.743Z,10.20
2022-11-04T06:23:38.684Z,10.20
2022-11-04T06:26:06.898Z,10.20
2022-11-04T06:28:34.839Z,10.10
2022-11-04T06:31:06.991Z,10.20
2022-11-04T06:33:37.046Z,10.10
2022-11-04T06:36:25.416Z,10.10
2022-11-04T06:38:53.366Z,10.10
2022-11-04T06:41:21.424Z,10.10
2022-11-04T06:43:49.421Z,10.10
2022-11-04T06:46:27.033Z,10.10
2022-11-04T06:48:55.956Z,10.10
2022-11-04T06:51:27.691Z,10.10
2022-11-04T06:53:55.589Z,10.10
2022-11-04T06:56:23.546Z,10.20
2022-11-04T06:58:51.591Z,10.20
2022-11-04T07:01:22.071Z,10.10
2022-11-04T07:03:52.287Z,10.20
2022-11-04T07:06:20.676Z,10.10
2022-11-04T07:08:48.961Z,10.10
2022-11-04T07:11:17.465Z,10.10
2022-11-04T07:13:45.415Z,10.10
2022-11-04T07:16:13.381Z,10.10
2022-11-04T07:18:41.373Z,10.10
2022-11-04T07:21:10.844Z,10.10
2022-11-04T07:23:50.768Z,10.10
2022-11-04T07:26:18.743Z,10.20
2022-11-04T07:28:46.684Z,10.10
2022-11-04T07:31:14.918Z,10.10
2022-11-04T07:33:43.102Z,10.10
2022-11-04T07:36:13.525Z,10.10
2022-11-04T07:38:41.498Z,10.20
2022-11-04T07:41:09.440Z,10.10
2022-11-04T07:43:37.391Z,10.90
2022-11-04T07:46:06.471Z,10.20
2022-11-04T07:48:34.617Z,10.10
2022-11-04T07:51:02.778Z,10.20
2022-11-04T07:53:43.470Z,10.20
2022-11-04T07:56:12.696Z,10.20
2022-11-04T07:58:40.862Z,10.20
2022-11-04T08:01:09.871Z,10.20
2022-11-04T08:03:37.763Z,10.20
2022-11-04T08:06:06.777Z,10.20
2022-11-04T08:08:35.173Z,10.20
2022-11-04T08:11:05.461Z,10.20
2022-11-04T08:13:34.110Z,10.20
2022-11-04T08:16:02.689Z,10.20
2022-11-04T08:18:32.091Z,10.20
2022-11-04T08:21:00.346Z,10.20
2022-11-04T08:23:28.442Z,10.20
2022-11-04T08:25:57.250Z,10.20
2022-11-04T08:28:26.667Z,10.10
2022-11-04T08:30:55.620Z,10.20
2022-11-04T08:33:24.559Z,10.20
2022-11-04T08:35:52.572Z,10.20
2022-11-04T08:38:20.548Z,10.20
2022-11-04T08:40:48.516Z,10.30
2022-11-04T08:43:16.629Z,10.30
2022-11-04T08:45:47.272Z,10.30
2022-11-04T08:48:16.464Z,10.40
2022-11-04T08:50:44.386Z,10.40
2022-11-04T08:53:12.440Z,10.40
2022-11-04T08:55:58.468Z,10.40
2022-11-04T08:58:26.419Z,10.50
2022-11-04T09:00:55.892Z,10.40
2022-11-04T09:03:23.902Z,10.50
2022-11-04T09:05:52.252Z,10.50
2022-11-04T09:08:23.188Z,10.50
2022-11-04T09:10:51.286Z,10.50
2022-11-04T09:13:19.260Z,10.50
2022-11-04T09:15:48.988Z,10.50
2022-11-04T09:18:18.808Z,10.50
2022-11-04T09:20:47.357Z,10.60
2022-11-04T09:23:15.242Z,10.60
2022-11-04T09:25:43.444Z,10.70
2022-11-04T09:28:11.720Z,10.70
2022-11-04T09:30:39.680Z,10.70
2022-11-04T09:33:07.904Z,10.70
2022-11-04T09:35:37.544Z,10.70
2022-11-04T09:38:05.538Z,10.80
2022-11-04T09:40:35.238Z,10.80
2022-11-04T09:43:12.739Z,10.90
2022-11-04T09:45:41.777Z,10.90
2022-11-04T09:48:14.183Z,10.90
2022-11-04T09:50:46.067Z,11.00
2022-11-04T09:53:17.767Z,11.00
2022-11-04T09:55:50.376Z,11.00
2022-11-04T09:58:18.461Z,11.00
2022-11-04T10:00:49.096Z,11.10
2022-11-04T10:03:21.853Z,11.10
2022-11-04T10:05:58.424Z,11.10
2022-11-04T10:08:38.163Z,11.10
2022-11-04T10:11:11.654Z,11.20
2022-11-04T10:13:47.144Z,11.20
2022-11-04T10:16:20.116Z,11.20
2022-11-04T10:18:57.492Z,11.20
2022-11-04T10:21:31.845Z,11.30
2022-11-04T10:24:36.871Z,11.30
2022-11-04T10:27:06.037Z,11.40
2022-11-04T10:29:38.358Z,11.40
2022-11-04T10:32:11.221Z,11.40
2022-11-04T10:34:42.977Z,11.40
2022-11-04T10:37:13.302Z,11.40
2022-11-04T10:39:43.237Z,11.40
2022-11-04T10:42:12.496Z,11.50
2022-11-04T10:44:40.628Z,11.40
2022-11-04T10:47:15.017Z,11.50
2022-11-04T10:50:06.752Z,11.50
2022-11-04T10:52:37.681Z,11.50
2022-11-04T10:55:12.661Z,11.50
2022-11-04T10:57:40.602Z,11.50
2022-11-04T11:00:09.375Z,11.60
2022-11-04T11:02:45.990Z,11.50
2022-11-04T11:05:16.380Z,11.60
2022-11-04T11:07:46.025Z,11.60
2022-11-04T11:10:18.148Z,11.60
2022-11-04T11:12:52.273Z,11.70
2022-11-04T11:15:27.280Z,11.70
2022-11-04T11:17:58.459Z,11.80
2022-11-04T11:20:27.612Z,11.90
2022-11-04T11:23:01.894Z,11.90
2022-11-04T11:25:33.006Z,11.90
2022-11-04T11:28:02.266Z,12.10
2022-11-04T11:30:31.949Z,12.10
2022-11-04T11:33:01.482Z,12.10
2022-11-04T11:35:31.638Z,12.10
2022-11-04T11:38:04.079Z,12.20
2022-11-04T11:40:34.238Z,12.20
2022-11-04T11:43:02.997Z,12.30
2022-11-04T11:45:31.211Z,12.40
2022-11-04T11:47:59.232Z,12.50
2022-11-04T11:50:34.497Z,12.60
2022-11-04T11:53:15.082Z,12.70
2022-11-04T11:55:45.058Z,12.80
2022-11-04T12:01:26.379Z,13.10
2022-11-04T12:09:42.403Z,13.60
2022-11-04T12:12:23.683Z,13.50
2022-11-04T12:15:02.361Z,13.60
2022-11-04T12:17:36.111Z,13.70
2022-11-04T12:20:15.060Z,13.70
2022-11-04T12:22:48.709Z,13.60
2022-11-04T12:25:22.399Z,14.20
2022-11-04T12:27:53.463Z,13.40
2022-11-04T12:30:29.835Z,13.40
2022-11-04T12:33:08.502Z,13.60
2022-11-04T12:35:56.387Z,13.90
2022-11-04T12:38:47.825Z,14.00
2022-11-04T12:44:15.125Z,14.20
2022-11-04T12:46:46.152Z,14.50
2022-11-04T12:49:23.358Z,14.70
2022-11-04T12:51:54.151Z,14.90
2022-11-04T12:54:35.525Z,15.00
2022-11-04T12:57:15.962Z,14.90
2022-11-04T13:00:08.181Z,14.90
2022-11-04T13:02:39.663Z,14.70
2022-11-04T13:05:10.742Z,14.80
2022-11-04T13:07:44.957Z,15.00
2022-11-04T13:10:18.355Z,15.40
2022-11-04T13:12:48.698Z,14.90
2022-11-04T13:15:18.380Z,14.60
2022-11-04T13:17:47.498Z,14.40
2022-11-04T13:20:18.236Z,14.40
2022-11-04T13:22:48.308Z,14.20
2022-11-04T13:25:18.955Z,14.10
2022-11-04T13:27:49.503Z,14.10
2022-11-04T13:30:23.049Z,14.50
2022-11-04T13:32:54.493Z,14.70
2022-11-04T13:35:25.051Z,15.00
2022-11-04T13:37:55.555Z,15.30
2022-11-04T13:40:25.786Z,15.60
2022-11-04T13:43:22.037Z,15.50
2022-11-04T13:45:51.259Z,15.40
2022-11-04T13:48:21.223Z,15.50
2022-11-04T13:50:56.686Z,15.70
2022-11-04T13:53:41.682Z,15.70
2022-11-04T13:56:32.071Z,16.00
2022-11-04T13:59:02.306Z,16.10
2022-11-04T14:01:30.713Z,15.90
2022-11-04T14:04:20.914Z,15.80
2022-11-04T14:06:53.516Z,15.60
2022-11-04T14:09:32.811Z,15.40
2022-11-04T14:12:17.160Z,15.10
2022-11-04T14:14:47.601Z,15.00
2022-11-04T14:17:30.681Z,14.80
2022-11-04T14:19:59.669Z,14.40
2022-11-04T14:22:49.411Z,14.30
2022-11-04T14:25:25.820Z,14.20
2022-11-04T14:27:55.068Z,14.20
2022-11-04T14:30:38.584Z,14.10
2022-11-04T14:33:08.698Z,14.00
2022-11-04T14:35:37.146Z,14.00
2022-11-04T14:38:21.188Z,13.90
2022-11-04T14:40:50.600Z,13.80
2022-11-04T14:43:22.070Z,13.80
2022-11-04T14:45:51.595Z,13.70
2022-11-04T14:48:21.274Z,13.70
2022-11-04T14:50:52.322Z,13.60
2022-11-04T14:53:23.367Z,13.50
2022-11-04T14:56:03.294Z,13.40
2022-11-04T14:58:31.310Z,13.30
2022-11-04T15:01:01.747Z,13.20
2022-11-04T15:04:10.134Z,13.20
2022-11-04T15:06:40.382Z,13.20
2022-11-04T15:09:22.227Z,13.10
2022-11-04T15:12:07.629Z,13.00
2022-11-04T15:14:37.216Z,12.90
2022-11-04T15:17:43.853Z,12.90
2022-11-04T15:20:22.884Z,13.00
2022-11-04T15:22:50.814Z,12.90
2022-11-04T15:25:19.572Z,12.90
2022-11-04T15:27:47.735Z,12.90
2022-11-04T15:30:20.762Z,12.80
2022-11-04T15:32:57.318Z,12.80
2022-11-04T15:35:25.877Z,12.70
2022-11-04T15:37:54.750Z,12.60
2022-11-04T15:40:23.012Z,12.60
2022-11-04T15:42:51.567Z,12.50
2022-11-04T15:45:27.004Z,12.50
2022-11-04T15:48:09.755Z,12.60
2022-11-04T15:50:39.407Z,12.40
2022-11-04T15:53:10.216Z,12.30
2022-11-04T15:55:39.160Z,12.20
2022-11-04T15:58:10.858Z,12.20
2022-11-04T16:00:38.801Z,12.10
2022-11-04T16:03:08.337Z,12.00
2022-11-04T16:05:37.797Z,12.00
2022-11-04T16:08:20.257Z,11.90
2022-11-04T16:10:48.423Z,11.90
2022-11-04T16:13:23.249Z,11.80
2022-11-04T16:15:52.914Z,11.70
2022-11-04T16:18:23.018Z,11.70
2022-11-04T16:20:53.100Z,11.60
2022-11-04T16:23:24.815Z,11.60
2022-11-04T16:26:26.605Z,11.50
2022-11-04T16:28:55.847Z,11.40
2022-11-04T16:31:25.480Z,11.30
2022-11-04T16:33:53.522Z,11.30
2022-11-04T16:36:24.505Z,11.30
2022-11-04T16:38:57.668Z,11.20
2022-11-04T16:41:26.814Z,11.20
2022-11-04T16:43:55.162Z,11.20
2022-11-04T16:46:23.500Z,11.10
2022-11-04T16:48:51.670Z,11.10
2022-11-04T16:51:20.899Z,11.10
2022-11-04T16:53:49.814Z,11.00
2022-11-04T16:56:19.844Z,11.00
2022-11-04T16:58:48.077Z,10.90
2022-11-04T17:01:16.333Z,10.90
2022-11-04T17:03:44.447Z,10.80
2022-11-04T17:06:13.292Z,10.70
2022-11-04T17:08:41.631Z,10.70
2022-11-04T17:11:10.765Z,10.70
2022-11-04T17:13:40.379Z,10.60
2022-11-04T17:16:09.086Z,10.60
2022-11-04T17:18:37.086Z,10.60
2022-11-04T17:21:07.252Z,10.50
2022-11-04T17:23:35.385Z,11.00
2022-11-04T17:26:03.483Z,10.40
2022-11-04T17:28:33.414Z,10.30
2022-11-04T17:31:03.122Z,10.30
2022-11-04T17:33:31.233Z,10.20
2022-11-04T17:36:04.736Z,10.20
2022-11-04T17:38:35.608Z,10.10
2022-11-04T17:41:21.022Z,10.10
2022-11-04T17:44:01.166Z,10.00
2022-11-04T17:46:38.077Z,10.00
2022-11-04T17:49:08.018Z,10.00
2022-11-04T17:51:37.354Z,10.00
2022-11-04T17:54:05.506Z,9.90
2022-11-04T17:56:33.440Z,9.90
2022-11-04T17:59:02.204Z,9.90
2022-11-04T18:01:32.300Z,9.90
2022-11-04T18:04:00.431Z,9.90
2022-11-04T18:06:30.614Z,9.80
2022-11-04T18:08:59.821Z,9.80
2022-11-04T18:11:46.671Z,9.80
2022-11-04T18:14:16.961Z,9.70
2022-11-04T18:16:48.233Z,9.70
2022-11-04T18:19:16.478Z,9.70
2022-11-04T18:21:44.451Z,9.60
2022-11-04T18:24:13.014Z,9.60
2022-11-04T18:26:41.038Z,9.60
2022-11-04T18:29:09.334Z,9.60
2022-11-04T18:31:38.698Z,9.60
2022-11-04T18:34:09.466Z,9.50
2022-11-04T18:36:38.522Z,9.50
2022-11-04T18:39:08.515Z,9.40
2022-11-04T18:41:36.750Z,9.40
2022-11-04T18:44:04.683Z,9.40
2022-11-04T18:46:32.600Z,9.30
2022-11-04T18:49:00.497Z,9.30
2022-11-04T18:51:29.937Z,9.30
2022-11-04T18:53:58.126Z,9.30
2022-11-04T18:56:26.130Z,9.20
2022-11-04T18:58:54.234Z,9.30
2022-11-04T19:01:23.751Z,9.20
2022-11-04T19:03:52.156Z,9.20
2022-11-04T19:06:21.170Z,9.20
2022-11-04T19:08:51.506Z,9.20
2022-11-04T19:11:20.445Z,9.20
2022-11-04T19:13:51.141Z,9.20
2022-11-04T19:16:19.179Z,9.10
2022-11-04T19:18:49.325Z,9.00
2022-11-04T19:21:19.820Z,9.00
2022-11-04T19:23:47.974Z,9.00
2022-11-04T19:26:18.692Z,9.00
2022-11-04T19:28:48.685Z,8.90
2022-11-04T19:31:18.390Z,9.00
2022-11-04T19:33:47.823Z,8.90
2022-11-04T19:36:16.851Z,8.90
2022-11-04T19:38:44.844Z,8.90
2022-11-04T19:41:34.239Z,8.90
2022-11-04T19:44:03.546Z,8.90
2022-11-04T19:46:31.549Z,8.80
2022-11-04T19:49:00.231Z,8.80
2022-11-04T19:51:31.924Z,8.70
2022-11-04T19:54:02.120Z,8.80
2022-11-04T19:56:30.671Z,8.80
2022-11-04T19:59:03.147Z,8.70
2022-11-04T20:01:35.685Z,8.70
2022-11-04T20:04:04.545Z,8.70
2022-11-04T20:06:33.952Z,8.70
2022-11-04T20:09:05.381Z,8.70
2022-11-04T20:11:33.697Z,8.60
2022-11-04T20:14:06.557Z,8.60
2022-11-04T20:16:39.630Z,8.60
2022-11-04T20:19:07.866Z,8.60
2022-11-04T20:21:36.682Z,8.60
2022-11-04T20:24:05.572Z,8.60
2022-11-04T20:26:34.047Z,8.50
2022-11-04T20:29:07.115Z,8.50
2022-11-04T20:31:36.130Z,8.50
2022-11-04T20:34:07.934Z,8.50
2022-11-04T20:36:36.622Z,8.40
2022-11-04T20:39:05.748Z,8.50
2022-11-04T20:41:34.051Z,8.40
2022-11-04T20:44:02.724Z,8.40
2022-11-04T20:46:31.551Z,8.40
2022-11-04T20:48:59.888Z,8.30
2022-11-04T20:51:30.142Z,8.30
2022-11-04T20:54:00.443Z,8.30
2022-11-04T20:56:31.118Z,8.30
2022-11-04T20:59:00.158Z,8.30
2022-11-04T21:01:29.031Z,8.30
2022-11-04T21:03:59.453Z,8.30
2022-11-04T21:06:27.410Z,8.30
2022-11-04T21:08:56.752Z,8.30
2022-11-04T21:11:30.382Z,8.20
2022-11-04T21:13:59.725Z,8.20
2022-11-04T21:16:27.863Z,8.20
2022-11-04T21:18:57.251Z,8.20
2022-11-04T21:21:27.684Z,8.20
2022-11-04T21:24:00.437Z,8.10
2022-11-04T21:26:29.521Z,8.10
2022-11-04T21:28:57.703Z,8.10
2022-11-04T21:31:26.405Z,8.10
2022-11-04T21:33:54.500Z,8.00
2022-11-04T21:36:23.169Z,8.00
2022-11-04T21:38:51.365Z,8.00
2022-11-04T21:41:23.029Z,8.00
2022-11-04T21:43:54.620Z,8.00
2022-11-04T21:46:22.672Z,8.00
2022-11-04T21:48:50.766Z,8.00
2022-11-04T21:51:20.193Z,8.00
2022-11-04T21:53:48.378Z,7.90
2022-11-04T21:56:17.414Z,7.90
2022-11-04T21:58:46.792Z,7.90
2022-11-04T22:01:16.168Z,7.90
2022-11-04T22:03:44.699Z,7.90
2022-11-04T22:06:13.656Z,7.90
2022-11-04T22:08:43.991Z,7.90
2022-11-04T22:11:13.187Z,7.90
2022-11-04T22:13:41.351Z,7.80
2022-11-04T22:16:15.159Z,7.80
2022-11-04T22:18:43.292Z,7.80
2022-11-04T22:21:13.082Z,8.30
2022-11-04T22:23:41.518Z,7.80
2022-11-04T22:26:11.510Z,7.80
2022-11-04T22:28:39.618Z,7.70
2022-11-04T22:31:08.523Z,7.70
2022-11-04T22:33:37.844Z,7.70
2022-11-04T22:36:06.098Z,7.70
2022-11-04T22:38:34.204Z,7.70
2022-11-04T22:41:02.795Z,7.70
2022-11-04T22:43:30.791Z,7.70
2022-11-04T22:45:59.132Z,7.70
2022-11-04T22:48:27.161Z,7.70
2022-11-04T22:50:57.519Z,7.60
2022-11-04T22:53:25.930Z,7.60
2022-11-04T22:55:54.050Z,7.60
2022-11-04T22:58:21.982Z,7.60
2022-11-04T23:00:54.892Z,7.60
2022-11-04T23:03:23.385Z,7.60
2022-11-04T23:05:54.616Z,7.60
2022-11-04T23:08:24.050Z,7.60
2022-11-04T23:11:10.221Z,7.50
2022-11-04T23:13:58.800Z,7.50
2022-11-04T23:16:44.394Z,7.50
2022-11-04T23:19:12.453Z,7.50
2022-11-04T23:21:57.983Z,7.50
2022-11-04T23:24:45.000Z,7.50
2022-11-04T23:27:33.019Z,7.40
2022-11-04T23:30:18.779Z,7.40
2022-11-04T23:32:46.737Z,7.40
2022-11-04T23:35:46.784Z,7.40
2022-11-04T23:38:14.796Z,7.30
2022-11-04T23:41:04.370Z,7.40
2022-11-04T23:43:32.611Z,7.40
2022-11-04T23:46:18.275Z,7.30
2022-11-04T23:49:03.696Z,7.30
2022-11-04T23:51:49.328Z,7.30
2022-11-04T23:54:34.861Z,7.30
2022-11-04T23:57:28.651Z,7.30
